OAL017 LGAV-LIBD
Flight info
| Callsign | OAL017 |
|---|---|
| Flight time | 1h 14m |
| Altitude | 34000 |
| Route | KOR UL53 KRK UL995 TIGRA DCT DOLON |
| Aircraft | B738/M-SDE2E3FGHIRWXY/LB1 |
Departure
| Time | 2026-05-09 11:26 |
|---|---|
| Airport | Athens Eleftherios Venizelos International Airport (LGAV) |
Arrival
| Time | 2026-05-09 12:40 |
|---|---|
| Airport | Bari Karol Wojtyła International Airport (LIBD) |
| Time | Latitude | Longitude | Altitude | Speed | Heading |
|---|---|---|---|---|---|
| 2026-05-09 11:18 | 37.94114 | 23.95376 | 299 ft | 0 kts | 218° |
| 2026-05-09 11:20 | 37.94127 | 23.95389 | 301 ft | 4 kts | 218° |
| 2026-05-09 11:20 | 37.94148 | 23.95409 | 299 ft | 4 kts | 218° |
| 2026-05-09 11:21 | 37.94171 | 23.95431 | 300 ft | 5 kts | 218° |
| 2026-05-09 11:21 | 37.94202 | 23.95437 | 299 ft | 5 kts | 130° |
| 2026-05-09 11:21 | 37.94204 | 23.95435 | 299 ft | 0 kts | 126° |
| 2026-05-09 11:22 | 37.94203 | 23.95436 | 299 ft | 1 kts | 126° |
| 2026-05-09 11:22 | 37.94172 | 23.95490 | 301 ft | 15 kts | 126° |
| 2026-05-09 11:22 | 37.94097 | 23.95651 | 297 ft | 28 kts | 90° |
| 2026-05-09 11:22 | 37.94239 | 23.95835 | 299 ft | 29 kts | 37° |
| 2026-05-09 11:23 | 37.94435 | 23.96024 | 301 ft | 41 kts | 37° |
| 2026-05-09 11:23 | 37.94689 | 23.96268 | 299 ft | 51 kts | 37° |
| 2026-05-09 11:23 | 37.94933 | 23.96498 | 301 ft | 35 kts | 37° |
| 2026-05-09 11:23 | 37.95159 | 23.96713 | 303 ft | 46 kts | 37° |
| 2026-05-09 11:24 | 37.95285 | 23.96917 | 304 ft | 15 kts | 122° |
| 2026-05-09 11:24 | 37.95275 | 23.96936 | 306 ft | 0 kts | 123° |
| 2026-05-09 11:25 | 37.95261 | 23.96963 | 306 ft | 9 kts | 123° |
| 2026-05-09 11:25 | 37.95192 | 23.97021 | 309 ft | 16 kts | 192° |
| 2026-05-09 11:25 | 37.95166 | 23.97002 | 309 ft | 2 kts | 218° |
| 2026-05-09 11:25 | 37.95155 | 23.96991 | 309 ft | 2 kts | 218° |
| 2026-05-09 11:26 | 37.95089 | 23.96926 | 308 ft | 41 kts | 218° |
| 2026-05-09 11:26 | 37.94648 | 23.96502 | 297 ft | 116 kts | 217° |
| 2026-05-09 11:26 | 37.93839 | 23.95743 | 464 ft | 161 kts | 216° |
| 2026-05-09 11:26 | 37.92922 | 23.94904 | 1254 ft | 168 kts | 214° |
| 2026-05-09 11:27 | 37.91997 | 23.94026 | 2186 ft | 166 kts | 217° |
| 2026-05-09 11:27 | 37.91092 | 23.93070 | 2913 ft | 183 kts | 206° |
| 2026-05-09 11:27 | 37.89726 | 23.92848 | 3207 ft | 215 kts | 180° |
| 2026-05-09 11:27 | 37.88218 | 23.92385 | 3618 ft | 238 kts | 212° |
| 2026-05-09 11:28 | 37.86839 | 23.91155 | 4512 ft | 245 kts | 215° |
| 2026-05-09 11:28 | 37.85382 | 23.89974 | 5449 ft | 251 kts | 213° |
| 2026-05-09 11:28 | 37.83887 | 23.88846 | 6533 ft | 250 kts | 212° |
| 2026-05-09 11:28 | 37.82366 | 23.87749 | 7487 ft | 253 kts | 211° |
| 2026-05-09 11:29 | 37.80824 | 23.86673 | 8506 ft | 253 kts | 211° |
| 2026-05-09 11:29 | 37.79270 | 23.85596 | 9494 ft | 256 kts | 214° |
| 2026-05-09 11:29 | 37.78061 | 23.83972 | 10343 ft | 259 kts | 246° |
| 2026-05-09 11:29 | 37.77791 | 23.81727 | 11102 ft | 272 kts | 272° |
| 2026-05-09 11:30 | 37.78157 | 23.79245 | 11331 ft | 302 kts | 281° |
| 2026-05-09 11:30 | 37.78685 | 23.76572 | 11740 ft | 320 kts | 282° |
| 2026-05-09 11:30 | 37.79235 | 23.73858 | 12520 ft | 325 kts | 282° |
| 2026-05-09 11:30 | 37.79790 | 23.71074 | 13440 ft | 327 kts | 282° |
| 2026-05-09 11:31 | 37.80334 | 23.68272 | 14278 ft | 329 kts | 282° |
| 2026-05-09 11:31 | 37.80868 | 23.65451 | 15072 ft | 331 kts | 282° |
| 2026-05-09 11:31 | 37.81395 | 23.62605 | 15881 ft | 333 kts | 282° |
| 2026-05-09 11:31 | 37.81916 | 23.59741 | 16675 ft | 335 kts | 282° |
| 2026-05-09 11:32 | 37.82430 | 23.56856 | 17457 ft | 338 kts | 282° |
| 2026-05-09 11:32 | 37.82942 | 23.53941 | 18230 ft | 341 kts | 282° |
| 2026-05-09 11:32 | 37.83447 | 23.51006 | 18913 ft | 343 kts | 282° |
| 2026-05-09 11:32 | 37.83949 | 23.48041 | 19609 ft | 345 kts | 282° |
| 2026-05-09 11:33 | 37.84443 | 23.45066 | 20299 ft | 347 kts | 282° |
| 2026-05-09 11:33 | 37.84931 | 23.42069 | 20958 ft | 349 kts | 282° |
| 2026-05-09 11:33 | 37.85860 | 23.36004 | 22253 ft | 354 kts | 282° |
| 2026-05-09 11:34 | 37.86312 | 23.32933 | 22876 ft | 356 kts | 282° |
| 2026-05-09 11:34 | 37.86758 | 23.29843 | 23537 ft | 357 kts | 282° |
| 2026-05-09 11:34 | 37.87222 | 23.26742 | 23947 ft | 363 kts | 284° |
| 2026-05-09 11:34 | 37.87774 | 23.23580 | 24194 ft | 372 kts | 284° |
| 2026-05-09 11:35 | 37.88357 | 23.20377 | 24623 ft | 374 kts | 284° |
| 2026-05-09 11:35 | 37.88936 | 23.17164 | 25194 ft | 373 kts | 284° |
| 2026-05-09 11:35 | 37.89503 | 23.13960 | 25752 ft | 373 kts | 284° |
| 2026-05-09 11:35 | 37.90055 | 23.10790 | 26246 ft | 374 kts | 284° |
| 2026-05-09 11:36 | 37.90612 | 23.07563 | 26642 ft | 376 kts | 284° |
| 2026-05-09 11:36 | 37.91169 | 23.04320 | 27048 ft | 378 kts | 284° |
| 2026-05-09 11:36 | 37.91727 | 23.01061 | 27495 ft | 379 kts | 284° |
| 2026-05-09 11:36 | 37.92294 | 22.97792 | 27949 ft | 380 kts | 286° |
| 2026-05-09 11:37 | 37.93122 | 22.94621 | 28372 ft | 380 kts | 293° |
| 2026-05-09 11:37 | 37.94225 | 22.91586 | 28811 ft | 380 kts | 297° |
| 2026-05-09 11:37 | 37.95617 | 22.88752 | 29470 ft | 377 kts | 303° |
| 2026-05-09 11:37 | 37.97110 | 22.86077 | 30346 ft | 367 kts | 303° |
| 2026-05-09 11:38 | 37.98573 | 22.83460 | 30976 ft | 361 kts | 303° |
| 2026-05-09 11:38 | 38.00015 | 22.80866 | 31491 ft | 358 kts | 303° |
| 2026-05-09 11:38 | 38.01443 | 22.78281 | 31917 ft | 358 kts | 303° |
| 2026-05-09 11:38 | 38.02868 | 22.75692 | 32236 ft | 359 kts | 303° |
| 2026-05-09 11:39 | 38.04300 | 22.73085 | 32569 ft | 360 kts | 303° |
| 2026-05-09 11:39 | 38.05731 | 22.70479 | 32946 ft | 360 kts | 303° |
| 2026-05-09 11:39 | 38.07162 | 22.67869 | 33304 ft | 361 kts | 303° |
| 2026-05-09 11:40 | 38.10040 | 22.62620 | 33894 ft | 364 kts | 303° |
| 2026-05-09 11:40 | 38.12943 | 22.57316 | 34023 ft | 367 kts | 302° |
| 2026-05-09 11:41 | 38.15821 | 22.52051 | 34020 ft | 362 kts | 302° |
| 2026-05-09 11:41 | 38.18685 | 22.46802 | 34019 ft | 362 kts | 302° |
| 2026-05-09 11:42 | 38.21558 | 22.41524 | 34024 ft | 364 kts | 303° |
| 2026-05-09 11:42 | 38.24448 | 22.36210 | 34022 ft | 365 kts | 303° |
| 2026-05-09 11:43 | 38.27327 | 22.30906 | 34025 ft | 364 kts | 302° |
| 2026-05-09 11:43 | 38.30205 | 22.25596 | 34062 ft | 364 kts | 302° |
| 2026-05-09 11:44 | 38.33082 | 22.20283 | 34031 ft | 364 kts | 302° |
| 2026-05-09 11:44 | 38.35952 | 22.14976 | 34026 ft | 363 kts | 302° |
| 2026-05-09 11:45 | 38.38812 | 22.09680 | 34026 ft | 364 kts | 303° |
| 2026-05-09 11:45 | 38.41685 | 22.04349 | 34047 ft | 366 kts | 303° |
| 2026-05-09 11:46 | 38.44580 | 21.98968 | 34025 ft | 369 kts | 302° |
| 2026-05-09 11:46 | 38.47474 | 21.93580 | 34049 ft | 368 kts | 302° |
| 2026-05-09 11:47 | 38.50364 | 21.88192 | 34024 ft | 368 kts | 302° |
| 2026-05-09 11:47 | 38.53247 | 21.82809 | 34028 ft | 366 kts | 302° |
| 2026-05-09 11:48 | 38.56076 | 21.77505 | 34026 ft | 362 kts | 302° |
| 2026-05-09 11:48 | 38.58907 | 21.72186 | 34039 ft | 365 kts | 302° |
| 2026-05-09 11:49 | 38.61780 | 21.66780 | 34049 ft | 369 kts | 302° |
| 2026-05-09 11:49 | 38.64667 | 21.61337 | 34044 ft | 370 kts | 302° |
| 2026-05-09 11:50 | 38.67557 | 21.55882 | 34022 ft | 371 kts | 302° |
| 2026-05-09 11:50 | 38.70460 | 21.50394 | 34046 ft | 373 kts | 302° |
| 2026-05-09 11:51 | 38.73369 | 21.44882 | 34051 ft | 373 kts | 302° |
| 2026-05-09 11:51 | 38.76264 | 21.39380 | 34038 ft | 371 kts | 302° |
| 2026-05-09 11:52 | 38.79140 | 21.33905 | 34038 ft | 369 kts | 302° |
| 2026-05-09 11:52 | 38.81995 | 21.28461 | 34044 ft | 367 kts | 302° |
| 2026-05-09 11:53 | 38.84837 | 21.23032 | 34047 ft | 366 kts | 302° |
| 2026-05-09 11:53 | 38.87664 | 21.17623 | 34043 ft | 365 kts | 302° |
| 2026-05-09 11:54 | 38.90482 | 21.12221 | 34035 ft | 364 kts | 302° |
| 2026-05-09 11:54 | 38.93274 | 21.06860 | 34050 ft | 364 kts | 302° |
| 2026-05-09 11:55 | 38.96087 | 21.01451 | 34050 ft | 365 kts | 302° |
| 2026-05-09 11:56 | 39.04585 | 20.85064 | 34044 ft | 368 kts | 302° |
| 2026-05-09 11:57 | 39.07423 | 20.79574 | 34055 ft | 369 kts | 302° |
| 2026-05-09 11:57 | 39.10264 | 20.74069 | 34047 ft | 369 kts | 302° |
| 2026-05-09 11:58 | 39.13102 | 20.68558 | 34046 ft | 369 kts | 302° |
| 2026-05-09 11:58 | 39.15935 | 20.63048 | 34062 ft | 369 kts | 301° |
| 2026-05-09 11:59 | 39.18770 | 20.57526 | 34053 ft | 369 kts | 301° |
| 2026-05-09 11:59 | 39.21599 | 20.52003 | 34045 ft | 369 kts | 302° |
| 2026-05-09 12:00 | 39.24424 | 20.46481 | 34035 ft | 368 kts | 301° |
| 2026-05-09 12:00 | 39.27240 | 20.40971 | 34036 ft | 368 kts | 301° |
| 2026-05-09 12:01 | 39.30040 | 20.35504 | 34039 ft | 367 kts | 301° |
| 2026-05-09 12:01 | 39.32850 | 20.30007 | 34069 ft | 367 kts | 302° |
| 2026-05-09 12:02 | 39.35664 | 20.24492 | 34050 ft | 368 kts | 302° |
| 2026-05-09 12:02 | 39.38477 | 20.18966 | 34050 ft | 368 kts | 301° |
| 2026-05-09 12:03 | 39.41290 | 20.13433 | 34026 ft | 368 kts | 301° |
| 2026-05-09 12:03 | 39.44105 | 20.07889 | 34035 ft | 369 kts | 302° |
| 2026-05-09 12:04 | 39.47116 | 20.02494 | 34043 ft | 370 kts | 304° |
| 2026-05-09 12:04 | 39.50235 | 19.97174 | 34046 ft | 371 kts | 304° |
| 2026-05-09 12:05 | 39.53355 | 19.91833 | 34057 ft | 372 kts | 304° |
| 2026-05-09 12:05 | 39.55940 | 19.87377 | 34058 ft | 372 kts | 304° |
| 2026-05-09 12:06 | 39.59044 | 19.82004 | 34044 ft | 373 kts | 304° |
| 2026-05-09 12:06 | 39.62151 | 19.76609 | 34043 ft | 374 kts | 304° |
| 2026-05-09 12:07 | 39.65262 | 19.71197 | 34053 ft | 374 kts | 304° |
| 2026-05-09 12:07 | 39.68370 | 19.65782 | 34048 ft | 374 kts | 304° |
| 2026-05-09 12:08 | 39.71473 | 19.60368 | 34048 ft | 373 kts | 304° |
| 2026-05-09 12:08 | 39.74564 | 19.54962 | 34051 ft | 372 kts | 304° |
| 2026-05-09 12:09 | 39.77644 | 19.49570 | 34059 ft | 371 kts | 304° |
| 2026-05-09 12:09 | 39.80718 | 19.44177 | 34061 ft | 371 kts | 303° |
| 2026-05-09 12:10 | 39.86851 | 19.33390 | 34061 ft | 371 kts | 303° |
| 2026-05-09 12:11 | 39.89921 | 19.27976 | 34079 ft | 371 kts | 303° |
| 2026-05-09 12:11 | 39.92987 | 19.22561 | 34072 ft | 372 kts | 303° |
| 2026-05-09 12:12 | 39.96055 | 19.17131 | 34075 ft | 372 kts | 303° |
| 2026-05-09 12:12 | 39.99121 | 19.11697 | 34077 ft | 372 kts | 303° |
| 2026-05-09 12:13 | 40.02190 | 19.06248 | 34086 ft | 373 kts | 303° |
| 2026-05-09 12:13 | 40.05259 | 19.00790 | 34080 ft | 373 kts | 303° |
| 2026-05-09 12:14 | 40.08416 | 18.95396 | 34081 ft | 374 kts | 305° |
| 2026-05-09 12:14 | 40.11663 | 18.90072 | 34082 ft | 375 kts | 305° |
| 2026-05-09 12:15 | 40.14886 | 18.84769 | 34089 ft | 375 kts | 305° |
| 2026-05-09 12:15 | 40.18129 | 18.79397 | 33640 ft | 380 kts | 305° |
| 2026-05-09 12:15 | 40.19744 | 18.76714 | 33214 ft | 373 kts | 305° |
| 2026-05-09 12:16 | 40.21338 | 18.74064 | 32793 ft | 368 kts | 305° |
| 2026-05-09 12:16 | 40.22912 | 18.71443 | 32307 ft | 365 kts | 305° |
| 2026-05-09 12:16 | 40.24469 | 18.68847 | 31881 ft | 361 kts | 305° |
| 2026-05-09 12:16 | 40.26013 | 18.66269 | 31419 ft | 358 kts | 305° |
| 2026-05-09 12:17 | 40.27545 | 18.63709 | 30965 ft | 356 kts | 305° |
| 2026-05-09 12:17 | 40.29065 | 18.61165 | 30525 ft | 353 kts | 305° |
| 2026-05-09 12:17 | 40.30573 | 18.58641 | 30071 ft | 351 kts | 305° |
| 2026-05-09 12:17 | 40.32074 | 18.56126 | 29565 ft | 349 kts | 306° |
| 2026-05-09 12:18 | 40.33563 | 18.53630 | 29072 ft | 346 kts | 305° |
| 2026-05-09 12:18 | 40.35036 | 18.51160 | 28615 ft | 343 kts | 305° |
| 2026-05-09 12:18 | 40.36496 | 18.48709 | 28167 ft | 339 kts | 305° |
| 2026-05-09 12:18 | 40.37943 | 18.46277 | 27728 ft | 336 kts | 305° |
| 2026-05-09 12:19 | 40.39374 | 18.43870 | 27296 ft | 334 kts | 305° |
| 2026-05-09 12:19 | 40.40796 | 18.41477 | 26848 ft | 331 kts | 305° |
| 2026-05-09 12:19 | 40.42206 | 18.39101 | 26419 ft | 329 kts | 305° |
| 2026-05-09 12:19 | 40.43608 | 18.36739 | 26000 ft | 327 kts | 305° |
| 2026-05-09 12:20 | 40.45002 | 18.34386 | 25578 ft | 325 kts | 305° |
| 2026-05-09 12:20 | 40.46387 | 18.32048 | 25159 ft | 324 kts | 305° |
| 2026-05-09 12:20 | 40.47766 | 18.29718 | 24740 ft | 323 kts | 305° |
| 2026-05-09 12:20 | 40.49141 | 18.27393 | 24317 ft | 322 kts | 305° |
| 2026-05-09 12:21 | 40.50496 | 18.25101 | 23890 ft | 321 kts | 305° |
| 2026-05-09 12:21 | 40.51863 | 18.22785 | 23429 ft | 321 kts | 306° |
| 2026-05-09 12:21 | 40.53226 | 18.20475 | 23001 ft | 319 kts | 306° |
| 2026-05-09 12:21 | 40.54580 | 18.18180 | 22558 ft | 316 kts | 306° |
| 2026-05-09 12:22 | 40.55941 | 18.15871 | 22127 ft | 314 kts | 306° |
| 2026-05-09 12:22 | 40.57273 | 18.13608 | 21716 ft | 312 kts | 306° |
| 2026-05-09 12:22 | 40.58580 | 18.11387 | 21316 ft | 310 kts | 306° |
| 2026-05-09 12:22 | 40.59893 | 18.09154 | 20922 ft | 308 kts | 307° |
| 2026-05-09 12:23 | 40.61200 | 18.06929 | 20505 ft | 306 kts | 307° |
| 2026-05-09 12:23 | 40.62497 | 18.04719 | 20111 ft | 305 kts | 307° |
| 2026-05-09 12:23 | 40.63792 | 18.02513 | 19720 ft | 303 kts | 307° |
| 2026-05-09 12:23 | 40.65078 | 18.00320 | 19328 ft | 303 kts | 307° |
| 2026-05-09 12:24 | 40.66355 | 17.98139 | 19097 ft | 297 kts | 307° |
| 2026-05-09 12:24 | 40.67615 | 17.95988 | 18777 ft | 297 kts | 308° |
| 2026-05-09 12:24 | 40.68877 | 17.93830 | 18429 ft | 299 kts | 308° |
| 2026-05-09 12:24 | 40.70157 | 17.91641 | 18020 ft | 307 kts | 308° |
| 2026-05-09 12:25 | 40.71475 | 17.89385 | 17592 ft | 314 kts | 308° |
| 2026-05-09 12:25 | 40.72808 | 17.87103 | 17160 ft | 314 kts | 308° |
| 2026-05-09 12:25 | 40.74134 | 17.84830 | 16740 ft | 311 kts | 308° |
| 2026-05-09 12:25 | 40.75447 | 17.82577 | 16328 ft | 309 kts | 308° |
| 2026-05-09 12:26 | 40.76754 | 17.80333 | 15927 ft | 307 kts | 307° |
| 2026-05-09 12:26 | 40.78052 | 17.78104 | 15529 ft | 306 kts | 307° |
| 2026-05-09 12:26 | 40.79349 | 17.75875 | 15047 ft | 307 kts | 307° |
| 2026-05-09 12:26 | 40.80646 | 17.73643 | 14617 ft | 307 kts | 307° |
| 2026-05-09 12:27 | 40.81941 | 17.71412 | 14234 ft | 305 kts | 307° |
| 2026-05-09 12:27 | 40.83233 | 17.69185 | 13790 ft | 306 kts | 307° |
| 2026-05-09 12:27 | 40.84530 | 17.66950 | 13348 ft | 305 kts | 307° |
| 2026-05-09 12:27 | 40.85818 | 17.64728 | 12929 ft | 304 kts | 307° |
| 2026-05-09 12:28 | 40.87100 | 17.62514 | 12515 ft | 303 kts | 307° |
| 2026-05-09 12:28 | 40.88378 | 17.60308 | 12114 ft | 302 kts | 307° |
| 2026-05-09 12:28 | 40.89695 | 17.58156 | 11695 ft | 301 kts | 311° |
| 2026-05-09 12:28 | 40.91107 | 17.56122 | 11368 ft | 298 kts | 313° |
| 2026-05-09 12:29 | 40.92497 | 17.54176 | 11249 ft | 283 kts | 313° |
| 2026-05-09 12:29 | 40.93826 | 17.52314 | 10886 ft | 275 kts | 313° |
| 2026-05-09 12:29 | 40.95119 | 17.50490 | 10535 ft | 268 kts | 313° |
| 2026-05-09 12:29 | 40.96378 | 17.48703 | 10134 ft | 264 kts | 313° |
| 2026-05-09 12:30 | 40.97625 | 17.46925 | 9601 ft | 264 kts | 313° |
| 2026-05-09 12:30 | 40.98873 | 17.45141 | 9174 ft | 264 kts | 313° |
| 2026-05-09 12:30 | 41.01349 | 17.41594 | 8537 ft | 263 kts | 313° |
| 2026-05-09 12:31 | 41.02588 | 17.39817 | 8255 ft | 262 kts | 313° |
| 2026-05-09 12:31 | 41.05035 | 17.36264 | 7662 ft | 260 kts | 312° |
| 2026-05-09 12:31 | 41.06223 | 17.34455 | 7372 ft | 260 kts | 311° |
| 2026-05-09 12:32 | 41.07403 | 17.32651 | 7093 ft | 259 kts | 312° |
| 2026-05-09 12:32 | 41.08581 | 17.30853 | 6813 ft | 258 kts | 312° |
| 2026-05-09 12:32 | 41.09758 | 17.29057 | 6535 ft | 257 kts | 312° |
| 2026-05-09 12:32 | 41.10932 | 17.27268 | 6246 ft | 257 kts | 312° |
| 2026-05-09 12:33 | 41.12100 | 17.25487 | 5954 ft | 256 kts | 312° |
| 2026-05-09 12:33 | 41.13265 | 17.23708 | 5670 ft | 255 kts | 312° |
| 2026-05-09 12:33 | 41.14425 | 17.21938 | 5385 ft | 254 kts | 312° |
| 2026-05-09 12:33 | 41.15580 | 17.20174 | 5114 ft | 253 kts | 312° |
| 2026-05-09 12:34 | 41.16732 | 17.18414 | 4843 ft | 252 kts | 312° |
| 2026-05-09 12:34 | 41.17876 | 17.16665 | 4623 ft | 248 kts | 312° |
| 2026-05-09 12:34 | 41.18993 | 17.14966 | 4507 ft | 241 kts | 313° |
| 2026-05-09 12:34 | 41.20091 | 17.13322 | 4334 ft | 236 kts | 313° |
| 2026-05-09 12:35 | 41.21160 | 17.11722 | 4218 ft | 228 kts | 311° |
| 2026-05-09 12:35 | 41.21847 | 17.09877 | 4087 ft | 224 kts | 278° |
| 2026-05-09 12:35 | 41.21723 | 17.07851 | 4022 ft | 218 kts | 259° |
| 2026-05-09 12:35 | 41.21299 | 17.05922 | 3822 ft | 218 kts | 259° |
| 2026-05-09 12:36 | 41.20992 | 17.03955 | 3626 ft | 218 kts | 261° |
| 2026-05-09 12:36 | 41.20701 | 17.01988 | 3420 ft | 216 kts | 261° |
| 2026-05-09 12:36 | 41.20408 | 17.00035 | 3210 ft | 215 kts | 261° |
| 2026-05-09 12:36 | 41.20103 | 16.98107 | 3046 ft | 211 kts | 256° |
| 2026-05-09 12:37 | 41.19605 | 16.96261 | 2975 ft | 216 kts | 251° |
| 2026-05-09 12:37 | 41.19044 | 16.94341 | 2629 ft | 225 kts | 252° |
| 2026-05-09 12:37 | 41.18491 | 16.92417 | 2360 ft | 219 kts | 252° |
| 2026-05-09 12:37 | 41.17969 | 16.90590 | 2165 ft | 204 kts | 253° |
| 2026-05-09 12:38 | 41.17485 | 16.88890 | 1953 ft | 191 kts | 254° |
| 2026-05-09 12:38 | 41.17036 | 16.87306 | 1726 ft | 181 kts | 253° |
| 2026-05-09 12:38 | 41.16608 | 16.85796 | 1496 ft | 168 kts | 254° |
| 2026-05-09 12:38 | 41.16220 | 16.84429 | 1283 ft | 152 kts | 254° |
| 2026-05-09 12:39 | 41.15861 | 16.83162 | 1085 ft | 144 kts | 254° |
| 2026-05-09 12:39 | 41.15505 | 16.81900 | 908 ft | 147 kts | 254° |
| 2026-05-09 12:39 | 41.15147 | 16.80634 | 689 ft | 145 kts | 252° |
| 2026-05-09 12:39 | 41.14795 | 16.79392 | 527 ft | 143 kts | 251° |
| 2026-05-09 12:40 | 41.14439 | 16.78135 | 336 ft | 148 kts | 251° |
| 2026-05-09 12:40 | 41.14075 | 16.76851 | 158 ft | 148 kts | 249° |
| 2026-05-09 12:40 | 41.13741 | 16.75672 | 151 ft | 100 kts | 249° |
| 2026-05-09 12:40 | 41.13617 | 16.75246 | 149 ft | 30 kts | 253° |
| 2026-05-09 12:41 | 41.13557 | 16.74980 | 147 ft | 29 kts | 253° |
| 2026-05-09 12:41 | 41.13489 | 16.74778 | 147 ft | 21 kts | 234° |
| 2026-05-09 12:41 | 41.13379 | 16.74799 | 155 ft | 17 kts | 114° |
| 2026-05-09 12:41 | 41.13350 | 16.74942 | 157 ft | 16 kts | 77° |
| 2026-05-09 12:42 | 41.13387 | 16.75080 | 157 ft | 16 kts | 69° |
| 2026-05-09 12:42 | 41.13424 | 16.75211 | 157 ft | 15 kts | 69° |
| 2026-05-09 12:42 | 41.13460 | 16.75338 | 157 ft | 15 kts | 69° |
| 2026-05-09 12:42 | 41.13498 | 16.75471 | 157 ft | 16 kts | 69° |
| 2026-05-09 12:43 | 41.13540 | 16.75618 | 157 ft | 18 kts | 69° |
| 2026-05-09 12:43 | 41.13586 | 16.75778 | 157 ft | 19 kts | 69° |
| 2026-05-09 12:43 | 41.13634 | 16.75948 | 157 ft | 20 kts | 75° |
| 2026-05-09 12:43 | 41.13592 | 16.76100 | 157 ft | 17 kts | 115° |
| 2026-05-09 12:44 | 41.13549 | 16.76208 | 158 ft | 12 kts | 144° |
| 2026-05-09 12:44 | 41.13494 | 16.76238 | 158 ft | 0 kts | 160° |